17:52
Airports
History
Links
Donate
Help keep this website running!
PayPal
Bitcoin
This page is community maintained. The information is intended for PC simulator navigation or reference.
Always use approved charts for navigation.
EBLN
LiernuEdited 15-Jul-2011
Liernu (EBLN)
Éghezée, Walloon Region, Belgium (5310)
(C)
Lat/Lng:50° 34' 46.48" N / 4° 47' 29.89" E
50.579578 / 4.791637
Elevation:560'ft / 171mMSL
ID / ICAO:EBLN
Runways:1
Longest:7-25
Grass 258m / 845ft
Controlled:Yes
(Edited 2011-07-15) [ Sign in to Edit ]
Nearby Weather17:25 GMT 2018-01-18
Nearby weather at EBBE, Beauvechain located 12.4 nautical miles from EBLN
Altimeter: 29.62
Visibility: 6.2 statute miles
Wind: 3 knots (from 220°)
Temp: 6°c / 43°f
Humidity: %

METAR: EBBE 181725Z AUTO 22003KT 9999 FEW050/// 06/00 Q1003 BLU

(Powered by phpweather)
Nearby VORs <50NM
Nearby NDBs
Runway 7 / 25
Dimensions:257.5 x 25m 845' x 82'ft
Surface:Grass
Runway 7 [A]Runway 25 [B]
Heading:064°TH 244°TH
Lat:
Lng:
50° 34' 44.68"N
4° 47' 23.98"E
50° 34' 48.28"N
4° 47' 35.8"E
User Notes and Comments
50° 34' 46.48" N / 4° 47' 29.89" E
Distance To
Airport ID:
Nearby Airports
(C) Namur 6.3 NM
EBNM S 189°
(C) Beauvechain 12.4 NM
EBBE ( WX ) N 355°
(C) Goetsenhoven 14.7 NM
EBTN NNE 29°
(C) Baisy-Thy 15.7 NM
EBBY W 267°
(C) Brussels South - Charleroi 17.0 NM
EBCI ( WX ) WSW 240°
(U) [X] Brustem AFB 22.7 NM
EBST NE 50°
(C) Florennes 24.2 NM
EBFS ( WX ) SSW 195°
VFR Chart
Flight Planning at SkyVector.com